Time;durP1;ratioP1;P1;durP2;ratioP2;P2;SDS_P1;SDS_P2;PMS_P1;PMS_P2;Temp;Humidity;BMP_temperature;BMP_pressure;BME280_temperature;BME280_humidity;BME280_pressure;Samples;Min_cycle;Max_cycle;Signal;HPM_P1;HPM_P2
2022/07/06 00:00:38;;;;;;;9.93;4.30;;;14.10;99.90;;;;;;4970919;28;20050;-71
2022/07/06 00:03:04;;;;;;;9.32;4.22;;;14.10;99.90;;;;;;4988984;28;20050;-71
2022/07/06 00:05:29;;;;;;;10.52;4.55;;;14.10;99.90;;;;;;4967714;28;20520;-71
2022/07/06 00:07:55;;;;;;;9.70;4.35;;;14.10;99.90;;;;;;4970868;28;20046;-71
2022/07/06 00:10:21;;;;;;;9.02;4.00;;;14.10;99.90;;;;;;4988498;28;20515;-71
2022/07/06 00:12:46;;;;;;;7.05;4.22;;;14.10;99.90;;;;;;4971349;28;20042;-71
2022/07/06 00:15:12;;;;;;;4.70;3.30;;;14.20;99.90;;;;;;4989372;28;20054;-71
2022/07/06 00:17:37;;;;;;;6.25;3.53;;;14.20;99.90;;;;;;4989121;28;20100;-71
2022/07/06 00:20:03;;;;;;;3.63;3.05;;;14.30;99.90;;;;;;4971595;28;20652;-71
2022/07/06 00:22:29;;;;;;;10.60;3.80;;;14.30;99.90;;;;;;4989246;28;20070;-71
2022/07/06 00:24:55;;;;;;;5.13;3.78;;;14.30;99.90;;;;;;4971230;28;20154;-71
2022/07/06 00:27:20;;;;;;;5.75;3.70;;;14.40;99.90;;;;;;4971183;28;20085;-71
2022/07/06 00:29:46;;;;;;;8.27;3.50;;;14.30;99.90;;;;;;4963224;28;20546;-71
2022/07/06 00:32:12;;;;;;;3.90;3.25;;;14.40;99.90;;;;;;4988221;28;20065;-70
2022/07/06 00:34:39;;;;;;;11.55;3.60;;;14.40;99.90;;;;;;4971599;28;20113;-71
2022/07/06 00:37:06;;;;;;;9.15;3.83;;;14.40;99.90;;;;;;4977952;28;20059;-71
2022/07/06 00:39:32;;;;;;;7.75;3.30;;;14.40;99.90;;;;;;4988938;28;20128;-70
2022/07/06 00:41:58;;;;;;;8.02;4.32;;;14.40;99.90;;;;;;4971351;28;20488;-71
2022/07/06 00:44:24;;;;;;;13.63;4.25;;;14.30;99.90;;;;;;4970897;28;20046;-71
2022/07/06 00:46:50;;;;;;;13.52;4.47;;;14.30;99.90;;;;;;4972702;28;20050;-71
2022/07/06 00:52:01;;;;;;;6.43;4.05;;;14.30;99.90;;;;;;4966936;28;20042;-71
2022/07/06 00:54:30;;;;;;;6.38;4.63;;;14.30;99.90;;;;;;4988556;28;20096;-71
2022/07/06 00:56:56;;;;;;;11.55;4.35;;;14.30;99.90;;;;;;4987454;28;20081;-71
2022/07/06 00:59:24;;;;;;;16.08;3.90;;;14.30;99.90;;;;;;4971376;28;20093;-72
2022/07/06 01:01:50;;;;;;;7.00;3.30;;;14.20;99.90;;;;;;4988153;28;20046;-72
2022/07/06 01:04:15;;;;;;;5.97;4.03;;;14.30;99.90;;;;;;4988130;28;20064;-72
2022/07/06 01:06:41;;;;;;;10.82;4.03;;;14.30;99.90;;;;;;4972898;28;20411;-72
2022/07/06 01:09:07;;;;;;;12.70;5.63;;;14.30;99.90;;;;;;4987042;28;20153;-72
2022/07/06 01:11:33;;;;;;;12.32;4.45;;;14.30;99.90;;;;;;4970082;28;20058;-72
2022/07/06 01:14:00;;;;;;;9.43;3.97;;;14.20;99.90;;;;;;4976538;28;20053;-72
2022/07/06 01:16:26;;;;;;;6.93;4.60;;;14.20;99.90;;;;;;4985257;28;20077;-72
2022/07/06 01:18:52;;;;;;;6.35;4.03;;;14.20;99.90;;;;;;4989699;28;20133;-72
2022/07/06 01:21:18;;;;;;;9.15;4.55;;;14.20;99.90;;;;;;4970323;28;20157;-72
2022/07/06 01:23:46;;;;;;;7.30;4.45;;;14.30;99.90;;;;;;4973336;28;20052;-72
2022/07/06 01:26:21;;;;;;;5.28;4.32;;;14.20;99.90;;;;;;4991625;28;20046;-72
2022/07/06 01:28:50;;;;;;;9.18;4.35;;;14.20;99.90;;;;;;4990382;28;20045;-72
2022/07/06 01:31:18;;;;;;;7.75;5.03;;;14.20;99.90;;;;;;4973795;28;20499;-72
2022/07/06 01:33:44;;;;;;;8.90;5.28;;;14.20;99.90;;;;;;4972976;28;20404;-72
2022/07/06 01:36:10;;;;;;;9.30;4.80;;;14.20;99.90;;;;;;4990503;28;20058;-72
2022/07/06 01:38:50;;;;;;;5.00;4.50;;;14.20;99.90;;;;;;4972747;28;20492;-72
2022/07/06 01:41:17;;;;;;;12.18;6.15;;;14.30;99.90;;;;;;4991136;28;20057;-71
2022/07/06 01:43:43;;;;;;;9.73;5.78;;;14.20;99.90;;;;;;4971979;28;20565;-72
2022/07/06 01:46:09;;;;;;;4.90;4.18;;;14.20;99.90;;;;;;4965476;28;20182;-72
2022/07/06 01:48:35;;;;;;;11.10;4.38;;;14.20;99.90;;;;;;4983682;28;20133;-72
2022/07/06 01:51:01;;;;;;;10.55;4.97;;;14.10;99.90;;;;;;4989555;28;20508;-72
2022/07/06 01:53:27;;;;;;;10.80;4.72;;;14.10;99.90;;;;;;4973158;28;20051;-72
2022/07/06 01:55:52;;;;;;;9.68;4.80;;;14.20;99.90;;;;;;4990408;28;20053;-72
2022/07/06 01:58:18;;;;;;;8.95;5.82;;;14.10;99.90;;;;;;4981241;28;20625;-72
2022/07/06 02:00:44;;;;;;;10.25;5.53;;;14.10;99.90;;;;;;4969782;28;20046;-72
2022/07/06 02:03:09;;;;;;;12.23;5.03;;;14.10;99.90;;;;;;4973084;28;20190;-72
2022/07/06 02:05:35;;;;;;;10.80;5.57;;;14.10;99.90;;;;;;4973015;28;20049;-72
2022/07/06 02:08:01;;;;;;;15.35;5.10;;;14.10;99.90;;;;;;4990257;28;20050;-72
2022/07/06 02:10:26;;;;;;;19.52;5.13;;;14.10;99.90;;;;;;4973282;28;20512;-72
2022/07/06 02:12:52;;;;;;;14.13;4.47;;;14.10;99.90;;;;;;4973511;28;20475;-72
2022/07/06 02:15:17;;;;;;;11.65;4.95;;;14.10;99.90;;;;;;4990289;28;20042;-72
2022/07/06 02:17:43;;;;;;;8.43;5.15;;;14.10;99.90;;;;;;4990186;28;20487;-72
2022/07/06 02:20:09;;;;;;;9.27;5.10;;;14.00;99.90;;;;;;4989385;28;20078;-72
2022/07/06 02:22:35;;;;;;;10.30;5.85;;;14.00;99.90;;;;;;4969065;28;20081;-72
2022/07/06 02:25:01;;;;;;;7.03;4.45;;;14.00;99.90;;;;;;4978612;28;20073;-72
2022/07/06 02:27:27;;;;;;;8.80;5.32;;;13.90;99.90;;;;;;4972217;28;20061;-72
2022/07/06 02:29:52;;;;;;;10.13;6.38;;;13.90;99.90;;;;;;4972682;28;20061;-72
2022/07/06 02:32:18;;;;;;;6.70;4.90;;;13.90;99.90;;;;;;4974011;28;20166;-72
2022/07/06 02:34:43;;;;;;;7.75;4.60;;;13.90;99.90;;;;;;4972902;28;20104;-72
2022/07/06 02:37:09;;;;;;;8.13;4.55;;;13.90;99.90;;;;;;4967151;28;20796;-72
2022/07/06 02:39:35;;;;;;;5.32;4.40;;;13.90;99.90;;;;;;4970748;28;20042;-72
2022/07/06 02:42:01;;;;;;;9.95;4.22;;;14.00;99.90;;;;;;4965336;28;20074;-72
2022/07/06 02:44:27;;;;;;;15.63;5.70;;;14.00;99.90;;;;;;4972623;28;20050;-72
2022/07/06 02:46:52;;;;;;;8.07;4.43;;;14.00;99.90;;;;;;4971749;28;20086;-72
2022/07/06 02:49:18;;;;;;;6.45;4.28;;;14.00;99.90;;;;;;4968000;28;20058;-72
2022/07/06 02:51:44;;;;;;;9.05;4.90;;;14.00;99.90;;;;;;4985534;28;20126;-72
2022/07/06 02:54:09;;;;;;;12.98;5.13;;;14.00;99.90;;;;;;4971879;28;20458;-72
2022/07/06 02:56:35;;;;;;;6.35;3.67;;;14.00;99.90;;;;;;4989200;28;20047;-72
2022/07/06 02:59:01;;;;;;;6.90;3.95;;;14.00;99.90;;;;;;4968876;28;20086;-72
2022/07/06 03:01:26;;;;;;;4.40;4.00;;;14.00;99.90;;;;;;4970027;28;20042;-72
2022/07/06 03:03:52;;;;;;;15.32;4.35;;;14.00;99.90;;;;;;4972075;28;20050;-72
2022/07/06 03:06:18;;;;;;;9.30;4.97;;;13.90;99.90;;;;;;4970091;28;20050;-71
2022/07/06 03:08:43;;;;;;;6.47;3.65;;;13.90;99.90;;;;;;4978850;28;20380;-70
2022/07/06 03:11:09;;;;;;;5.45;3.58;;;14.00;99.90;;;;;;4971255;28;20045;-71
2022/07/06 03:13:35;;;;;;;5.32;3.83;;;13.90;99.90;;;;;;4969331;28;20046;-71
2022/07/06 03:16:01;;;;;;;7.07;3.72;;;13.90;99.90;;;;;;4989226;28;20046;-71
2022/07/06 03:18:27;;;;;;;8.68;4.28;;;13.90;99.90;;;;;;4970569;28;20054;-71
2022/07/06 03:20:53;;;;;;;5.25;3.47;;;13.90;99.90;;;;;;4988264;28;20164;-71
2022/07/06 03:23:18;;;;;;;6.25;3.33;;;14.00;99.90;;;;;;4988679;28;20133;-71
2022/07/06 03:25:44;;;;;;;4.90;3.78;;;14.00;99.90;;;;;;4972268;28;20075;-71
2022/07/06 03:28:10;;;;;;;13.30;3.95;;;14.00;99.90;;;;;;4988945;28;20050;-71
2022/07/06 03:30:36;;;;;;;5.95;3.83;;;14.00;99.90;;;;;;4987774;28;20581;-71
2022/07/06 03:33:01;;;;;;;5.57;4.10;;;13.90;99.90;;;;;;4988431;28;20046;-71
2022/07/06 03:35:27;;;;;;;6.28;3.50;;;13.90;99.90;;;;;;4976097;28;20050;-71
2022/07/06 03:37:53;;;;;;;6.82;4.60;;;14.00;99.90;;;;;;4968247;28;20050;-71
2022/07/06 03:40:18;;;;;;;7.75;4.25;;;14.00;99.90;;;;;;4970721;28;20108;-72
2022/07/06 03:42:44;;;;;;;10.80;4.07;;;14.00;99.90;;;;;;4982167;28;20081;-71
2022/07/06 03:45:10;;;;;;;14.48;4.65;;;14.00;99.90;;;;;;4961462;28;20051;-71
2022/07/06 03:47:36;;;;;;;9.40;4.10;;;14.00;99.90;;;;;;4970288;28;20158;-71
2022/07/06 03:50:01;;;;;;;5.50;3.72;;;14.00;99.90;;;;;;4988124;28;20493;-71
2022/07/06 03:52:27;;;;;;;18.98;4.32;;;14.00;99.90;;;;;;4955033;28;20046;-71
2022/07/06 03:54:53;;;;;;;7.00;4.57;;;14.00;99.90;;;;;;4971297;28;20112;-70
2022/07/06 03:57:18;;;;;;;6.45;3.97;;;14.00;99.90;;;;;;4988372;28;20050;-71
2022/07/06 03:59:44;;;;;;;9.07;4.30;;;14.00;99.90;;;;;;4970627;28;20058;-71
2022/07/06 04:02:10;;;;;;;9.15;4.28;;;14.00;99.90;;;;;;4988710;28;20045;-71
2022/07/06 04:04:35;;;;;;;8.50;4.18;;;14.00;99.90;;;;;;4982092;28;20057;-71
2022/07/06 04:07:01;;;;;;;6.30;3.65;;;14.10;99.90;;;;;;4988149;28;20052;-71
2022/07/06 04:09:26;;;;;;;5.90;3.50;;;14.10;99.90;;;;;;4969788;28;20048;-71
2022/07/06 04:11:52;;;;;;;7.50;3.42;;;14.10;99.90;;;;;;4965334;28;20038;-71
2022/07/06 04:14:18;;;;;;;6.18;3.58;;;14.20;99.90;;;;;;4974056;28;20340;-71
2022/07/06 04:16:44;;;;;;;7.00;3.65;;;14.30;99.90;;;;;;4969716;28;20082;-71
2022/07/06 04:19:09;;;;;;;9.30;4.57;;;14.40;99.90;;;;;;4967517;28;20050;-71
2022/07/06 04:21:35;;;;;;;5.10;3.30;;;14.40;99.90;;;;;;4968273;28;20046;-71
2022/07/06 04:24:01;;;;;;;5.93;3.33;;;14.40;99.90;;;;;;4987210;28;20084;-71
2022/07/06 04:26:27;;;;;;;6.45;3.53;;;14.50;99.90;;;;;;4986934;28;20840;-72
2022/07/06 04:28:52;;;;;;;7.20;3.55;;;14.50;99.90;;;;;;4987297;28;20423;-72
2022/07/06 04:31:18;;;;;;;3.53;2.70;;;14.50;99.90;;;;;;4971072;28;20513;-72
2022/07/06 04:33:44;;;;;;;11.30;4.03;;;14.40;99.90;;;;;;4970218;28;20053;-72
2022/07/06 04:36:10;;;;;;;7.22;3.58;;;14.40;99.90;;;;;;4983040;28;20416;-72
2022/07/06 04:38:36;;;;;;;12.93;3.92;;;14.40;99.90;;;;;;4968051;28;20100;-72
2022/07/06 04:41:02;;;;;;;9.57;3.85;;;14.50;99.90;;;;;;4968692;28;20043;-72
2022/07/06 04:43:27;;;;;;;6.20;3.40;;;14.40;99.90;;;;;;4963400;28;20078;-72
2022/07/06 04:45:53;;;;;;;9.05;3.25;;;14.40;99.90;;;;;;4966570;28;20055;-72
2022/07/06 04:48:19;;;;;;;9.25;3.50;;;14.30;99.90;;;;;;4972464;28;20086;-72
2022/07/06 04:50:45;;;;;;;12.88;4.03;;;14.30;99.90;;;;;;4970823;28;20101;-72
2022/07/06 04:53:10;;;;;;;5.55;2.97;;;14.30;99.90;;;;;;4971682;28;20518;-72
2022/07/06 04:55:40;;;;;;;6.72;4.25;;;14.30;99.90;;;;;;4956811;28;20062;-72
2022/07/06 04:58:05;;;;;;;5.15;3.17;;;14.30;99.90;;;;;;4968106;28;20074;-72
2022/07/06 05:00:31;;;;;;;7.03;4.15;;;14.30;99.90;;;;;;4962367;28;20108;-72
2022/07/06 05:02:57;;;;;;;9.55;4.15;;;14.30;99.90;;;;;;4969975;28;20162;-72
2022/07/06 05:05:22;;;;;;;9.05;3.42;;;14.30;99.90;;;;;;4983904;28;20043;-72
2022/07/06 05:07:48;;;;;;;6.93;4.00;;;14.30;99.90;;;;;;4969217;28;20186;-72
2022/07/06 05:10:14;;;;;;;9.55;3.22;;;14.30;99.90;;;;;;4970530;28;20154;-72
2022/07/06 05:12:39;;;;;;;7.82;2.92;;;14.30;99.90;;;;;;4966968;28;20055;-72
2022/07/06 05:15:06;;;;;;;10.02;3.50;;;14.30;99.90;;;;;;4967654;28;20121;-72
2022/07/06 05:17:32;;;;;;;18.42;3.63;;;14.40;99.90;;;;;;4970747;28;20054;-72
2022/07/06 05:19:57;;;;;;;6.40;2.72;;;14.40;99.90;;;;;;4970513;28;20042;-72
2022/07/06 05:22:24;;;;;;;12.77;3.25;;;14.50;99.90;;;;;;4971660;28;20050;-71
2022/07/06 05:24:50;;;;;;;6.32;2.60;;;14.60;99.90;;;;;;4970991;28;20498;-71
2022/07/06 05:27:16;;;;;;;10.98;3.22;;;14.60;99.90;;;;;;4968137;28;20047;-72
2022/07/06 05:29:41;;;;;;;5.75;2.60;;;14.60;99.90;;;;;;4966670;28;20054;-71
2022/07/06 05:32:07;;;;;;;5.53;2.88;;;14.60;99.90;;;;;;4965488;28;20058;-72
2022/07/06 05:34:33;;;;;;;12.50;3.05;;;14.70;99.90;;;;;;4971495;28;20503;-71
2022/07/06 05:36:58;;;;;;;7.75;3.03;;;14.70;99.90;;;;;;4980341;28;20133;-70
2022/07/06 05:39:24;;;;;;;7.22;3.17;;;14.80;99.90;;;;;;4971146;28;20047;-71
2022/07/06 05:41:50;;;;;;;8.85;2.78;;;14.80;99.90;;;;;;4990669;28;20486;-71
2022/07/06 05:44:15;;;;;;;4.50;2.55;;;14.90;99.90;;;;;;4985851;28;20057;-71
2022/07/06 05:46:41;;;;;;;17.35;3.40;;;14.80;99.90;;;;;;4996259;28;20160;-71
2022/07/06 05:51:51;;;;;;;7.13;2.40;;;14.90;99.90;;;;;;4966851;28;20873;-71
2022/07/06 05:54:17;;;;;;;8.93;2.85;;;15.00;99.90;;;;;;4973004;28;20053;-71
2022/07/06 05:56:42;;;;;;;8.57;2.58;;;15.00;99.90;;;;;;4985508;28;20048;-71
2022/07/06 05:59:08;;;;;;;6.35;3.17;;;15.10;99.90;;;;;;4966819;28;20500;-72
2022/07/06 06:01:34;;;;;;;5.60;2.83;;;15.10;99.90;;;;;;4990074;28;20092;-71
2022/07/06 06:03:59;;;;;;;11.48;2.88;;;15.10;99.90;;;;;;4973013;28;20050;-71
2022/07/06 06:06:26;;;;;;;6.07;2.55;;;15.20;99.90;;;;;;4988997;28;20058;-72
2022/07/06 06:08:52;;;;;;;9.73;3.05;;;15.20;99.90;;;;;;4984615;28;20049;-71
2022/07/06 06:11:18;;;;;;;9.05;2.90;;;15.20;99.90;;;;;;4988715;28;20046;-72
2022/07/06 06:13:43;;;;;;;4.53;2.53;;;15.30;99.90;;;;;;4971919;28;20099;-71
2022/07/06 06:16:09;;;;;;;6.00;2.65;;;15.40;99.90;;;;;;4987773;28;20388;-72
2022/07/06 06:18:35;;;;;;;21.83;3.78;;;15.40;99.90;;;;;;4969595;28;20050;-71
2022/07/06 06:21:01;;;;;;;7.30;3.10;;;15.50;99.90;;;;;;4972790;28;20045;-71
2022/07/06 06:23:27;;;;;;;4.93;2.88;;;15.50;99.90;;;;;;4976116;28;20042;-72
2022/07/06 06:25:52;;;;;;;8.95;3.00;;;15.50;99.90;;;;;;4967384;28;20408;-72
2022/07/06 06:28:19;;;;;;;7.13;3.15;;;15.50;99.90;;;;;;4987062;28;20050;-72
2022/07/06 06:30:44;;;;;;;6.57;2.35;;;15.60;99.90;;;;;;4971271;28;20042;-72
2022/07/06 06:33:16;;;;;;;15.93;3.45;;;15.60;99.90;;;;;;4968052;28;20038;-73
2022/07/06 06:35:44;;;;;;;9.25;2.78;;;15.60;99.90;;;;;;4971635;28;20132;-72
2022/07/06 06:38:10;;;;;;;12.57;2.30;;;15.60;99.90;;;;;;4987281;28;20081;-73
2022/07/06 06:40:36;;;;;;;2.72;1.77;;;15.60;99.90;;;;;;4966083;28;20057;-72
2022/07/06 06:43:01;;;;;;;5.43;2.05;;;15.60;99.90;;;;;;4966410;28;20046;-73
2022/07/06 06:45:28;;;;;;;3.58;1.70;;;15.60;99.90;;;;;;4971980;28;20053;-72
2022/07/06 06:47:54;;;;;;;4.82;1.95;;;15.60;99.90;;;;;;4971703;28;20046;-72
2022/07/06 06:50:20;;;;;;;7.00;2.13;;;15.70;99.90;;;;;;4970746;28;20057;-73
2022/07/06 06:52:46;;;;;;;3.45;2.15;;;15.80;99.90;;;;;;4987750;28;20085;-72
2022/07/06 06:55:13;;;;;;;5.82;2.00;;;15.90;99.90;;;;;;4969525;28;20136;-73
2022/07/06 06:57:38;;;;;;;3.60;2.00;;;16.00;99.90;;;;;;4973863;28;20134;-73
2022/07/06 07:00:05;;;;;;;3.95;1.63;;;16.00;99.90;;;;;;4978116;28;20929;-73
2022/07/06 07:02:31;;;;;;;2.58;1.48;;;16.00;99.90;;;;;;4964922;28;20057;-73
2022/07/06 07:04:56;;;;;;;3.35;1.42;;;16.00;99.90;;;;;;4971341;28;20035;-74
2022/07/06 07:07:22;;;;;;;7.07;2.30;;;16.00;99.90;;;;;;4969039;28;20134;-74
2022/07/06 07:09:48;;;;;;;2.88;1.52;;;16.10;99.90;;;;;;4966021;28;20511;-73
2022/07/06 07:12:14;;;;;;;5.38;1.98;;;16.10;99.90;;;;;;4971792;28;20069;-74
2022/07/06 07:14:40;;;;;;;7.35;2.10;;;16.10;99.90;;;;;;4978676;28;20051;-73
2022/07/06 07:17:06;;;;;;;8.32;2.47;;;16.20;99.90;;;;;;4965183;28;20072;-73
2022/07/06 07:19:32;;;;;;;4.65;1.95;;;16.20;99.90;;;;;;4986491;28;20049;-72
2022/07/06 07:21:58;;;;;;;6.18;2.00;;;16.20;99.90;;;;;;4964563;28;20042;-73
2022/07/06 07:24:23;;;;;;;8.88;1.70;;;16.20;99.90;;;;;;4969934;28;20077;-73
2022/07/06 07:26:49;;;;;;;13.60;2.22;;;16.20;99.90;;;;;;4988655;28;20570;-72
2022/07/06 07:29:14;;;;;;;16.30;2.00;;;16.30;99.90;;;;;;4969087;28;20077;-71
2022/07/06 07:31:40;;;;;;;7.82;1.80;;;16.30;99.90;;;;;;4986176;28;20047;-73
2022/07/06 07:34:06;;;;;;;6.28;2.00;;;16.40;99.90;;;;;;4965495;28;20054;-73
2022/07/06 07:36:31;;;;;;;5.32;2.03;;;16.40;99.90;;;;;;4965988;28;20518;-73
2022/07/06 07:38:57;;;;;;;3.33;1.48;;;16.40;99.90;;;;;;4988337;28;20125;-72
2022/07/06 07:41:22;;;;;;;5.68;1.33;;;16.40;99.90;;;;;;4987244;28;20081;-72
2022/07/06 07:43:48;;;;;;;5.10;1.70;;;16.40;99.90;;;;;;4970102;28;20113;-72
2022/07/06 07:46:14;;;;;;;5.13;1.60;;;16.40;99.90;;;;;;4987597;28;20082;-71
2022/07/06 07:48:39;;;;;;;4.32;1.90;;;16.50;99.90;;;;;;4983187;28;20054;-72
2022/07/06 07:51:05;;;;;;;13.98;1.80;;;16.70;99.90;;;;;;4986947;28;20158;-72
2022/07/06 07:53:31;;;;;;;6.57;1.50;;;17.00;99.90;;;;;;4970773;28;20112;-72
2022/07/06 07:55:56;;;;;;;5.28;1.77;;;17.10;99.90;;;;;;4970705;28;20053;-71
2022/07/06 07:58:22;;;;;;;11.45;1.65;;;17.30;99.90;;;;;;4970026;28;20455;-72
2022/07/06 08:00:48;;;;;;;5.75;2.25;;;17.70;99.90;;;;;;4968123;28;20046;-72
2022/07/06 08:03:13;;;;;;;4.10;1.63;;;17.60;99.90;;;;;;4970957;28;20050;-71
2022/07/06 08:05:40;;;;;;;11.27;2.17;;;18.10;99.90;;;;;;4988204;28;20046;-72
2022/07/06 08:08:06;;;;;;;8.55;2.00;;;18.40;99.90;;;;;;4985522;28;20046;-72
2022/07/06 08:10:31;;;;;;;11.82;2.05;;;18.90;99.90;;;;;;4970079;28;20042;-72
2022/07/06 08:12:57;;;;;;;5.82;1.42;;;19.30;99.90;;;;;;4987610;28;20054;-72
2022/07/06 08:15:23;;;;;;;9.77;2.17;;;19.40;99.90;;;;;;4970546;28;20084;-72
2022/07/06 08:17:49;;;;;;;2.47;1.42;;;19.50;99.90;;;;;;4972677;28;20057;-72
2022/07/06 08:20:15;;;;;;;7.50;1.75;;;19.80;99.90;;;;;;4986590;28;20042;-72
2022/07/06 08:22:42;;;;;;;7.93;2.13;;;19.90;99.90;;;;;;4967541;28;20050;-72
2022/07/06 08:25:08;;;;;;;5.22;1.63;;;19.90;99.90;;;;;;4977142;28;20046;-74
2022/07/06 08:27:34;;;;;;;7.13;1.42;;;19.80;99.90;;;;;;4993597;28;20407;-73
2022/07/06 08:30:05;;;;;;;7.65;1.23;;;19.90;99.90;;;;;;4963730;28;20034;-72
2022/07/06 08:32:31;;;;;;;5.40;1.52;;;20.00;99.90;;;;;;4968847;28;20487;-72
2022/07/06 08:34:56;;;;;;;9.70;2.60;;;19.90;99.90;;;;;;4992928;28;20097;-72
2022/07/06 08:37:23;;;;;;;7.00;1.35;;;20.00;99.90;;;;;;4974725;28;20054;-72
2022/07/06 08:39:49;;;;;;;6.97;2.13;;;19.90;99.90;;;;;;4991561;28;20042;-72
2022/07/06 08:42:16;;;;;;;3.33;1.92;;;19.80;99.90;;;;;;4972738;28;20060;-72
2022/07/06 08:44:43;;;;;;;6.43;1.77;;;19.60;99.90;;;;;;4973367;28;20714;-73
2022/07/06 08:47:10;;;;;;;6.13;1.55;;;19.30;99.90;;;;;;4981922;28;20050;-73
2022/07/06 08:49:36;;;;;;;5.75;1.80;;;19.20;99.90;;;;;;4980849;28;20050;-73
2022/07/06 08:52:04;;;;;;;9.23;2.08;;;19.10;99.90;;;;;;4971948;28;20046;-72
2022/07/06 08:54:30;;;;;;;33.05;4.13;;;18.90;99.90;;;;;;4970933;28;20121;-72
2022/07/06 08:56:59;;;;;;;11.18;1.80;;;18.90;99.90;;;;;;4971027;28;20080;-72
2022/07/06 08:59:28;;;;;;;3.50;1.30;;;19.10;99.90;;;;;;4993961;28;20554;-72
2022/07/06 09:01:55;;;;;;;2.97;1.67;;;19.20;99.90;;;;;;4976351;28;20078;-73
2022/07/06 09:04:22;;;;;;;10.07;2.00;;;19.30;99.90;;;;;;4988732;28;20418;-73
2022/07/06 09:06:50;;;;;;;7.13;1.65;;;19.40;99.90;;;;;;4990223;28;20038;-72
2022/07/06 09:09:21;;;;;;;9.23;2.58;;;19.60;99.90;;;;;;4992196;28;20034;-72
2022/07/06 09:11:47;;;;;;;3.92;1.60;;;19.80;99.90;;;;;;4970331;28;20380;-73
2022/07/06 09:14:13;;;;;;;4.30;1.25;;;19.90;99.90;;;;;;4989911;28;20049;-73
2022/07/06 09:16:41;;;;;;;3.65;1.30;;;20.00;99.90;;;;;;4957518;28;20057;-72
2022/07/06 09:19:07;;;;;;;;;;;20.00;99.90;;;;;;4992705;28;20054;-72
2022/07/06 09:21:36;;;;;;;4.65;1.25;;;20.10;99.50;;;;;;4989481;28;19957;-74
2022/07/06 09:24:05;;;;;;;2.72;0.85;;;20.30;99.90;;;;;;4993019;28;20124;-73
2022/07/06 09:26:30;;;;;;;7.32;1.25;;;20.50;99.90;;;;;;4990016;28;20158;-74
2022/07/06 09:28:59;;;;;;;3.17;1.60;;;20.70;99.90;;;;;;4993459;28;20034;-72
2022/07/06 09:31:25;;;;;;;5.75;1.45;;;21.00;98.50;;;;;;4993158;28;20085;-75
2022/07/06 09:33:57;;;;;;;1.48;1.17;;;21.20;95.80;;;;;;4990252;28;20131;-72
2022/07/06 09:36:41;;;;;;;2.85;1.00;;;21.30;94.10;;;;;;4990334;28;20634;-72
2022/07/06 09:39:19;;;;;;;6.72;1.33;;;21.40;92.90;;;;;;4979861;28;20051;-73
2022/07/06 09:41:50;;;;;;;2.05;1.10;;;21.50;84.60;;;;;;4985139;28;20140;-73
2022/07/06 09:44:27;;;;;;;1.13;0.90;;;21.60;94.10;;;;;;4986204;28;20077;-72
2022/07/06 09:46:58;;;;;;;5.85;1.30;;;21.70;91.90;;;;;;4972522;28;20125;-73
2022/07/06 09:49:25;;;;;;;3.50;1.67;;;22.00;89.80;;;;;;4972805;28;20046;-72
2022/07/06 09:51:54;;;;;;;3.72;1.30;;;22.20;85.40;;;;;;4982980;28;20098;-73
2022/07/06 09:54:19;;;;;;;4.88;1.13;;;22.30;82.60;;;;;;4987088;28;20600;-73
2022/07/06 09:56:53;;;;;;;3.55;1.20;;;22.40;79.40;;;;;;4990295;28;20042;-73
2022/07/06 09:59:23;;;;;;;3.35;1.40;;;22.60;77.30;;;;;;4986971;28;20108;-73
2022/07/06 10:01:57;;;;;;;3.38;0.88;;;22.70;75.30;;;;;;4989933;28;20533;-73
2022/07/06 10:04:24;;;;;;;1.83;1.02;;;22.60;75.40;;;;;;4987119;28;20121;-72
2022/07/06 10:06:50;;;;;;;4.63;1.63;;;22.40;77.00;;;;;;4988506;28;20133;-72
2022/07/06 10:09:19;;;;;;;13.30;2.15;;;22.40;79.00;;;;;;4969387;28;20046;-72
2022/07/06 10:11:51;;;;;;;3.45;1.13;;;22.40;76.90;;;;;;4981874;28;20113;-73
2022/07/06 10:14:25;;;;;;;5.05;1.25;;;22.30;74.50;;;;;;4987187;28;20054;-72
2022/07/06 10:16:51;;;;;;;15.15;1.98;;;22.30;77.20;;;;;;4972289;28;20507;-73
2022/07/06 10:19:19;;;;;;;14.30;2.83;;;22.40;79.90;;;;;;4972045;28;20144;-72
2022/07/06 10:21:45;;;;;;;22.63;1.92;;;22.10;76.00;;;;;;4971498;28;20046;-73
2022/07/06 10:24:12;;;;;;;7.93;1.98;;;22.10;79.90;;;;;;4972142;28;20530;-73
2022/07/06 10:26:38;;;;;;;6.75;2.05;;;22.00;80.20;;;;;;4989584;28;20201;-73
2022/07/06 10:29:05;;;;;;;2.28;1.25;;;21.80;80.30;;;;;;4973368;28;20070;-72
2022/07/06 10:31:33;;;;;;;5.17;1.50;;;21.70;81.30;;;;;;4985542;28;20085;-72
2022/07/06 10:34:00;;;;;;;6.63;1.33;;;21.60;79.60;;;;;;4971572;28;20050;-72
2022/07/06 10:36:28;;;;;;;2.08;1.30;;;21.70;77.40;;;;;;4985026;28;20059;-72
2022/07/06 10:38:54;;;;;;;3.13;1.52;;;21.80;80.30;;;;;;4953981;28;20066;-72
2022/07/06 10:41:31;;;;;;;9.13;1.90;;;21.90;78.30;;;;;;4950250;28;20417;-72
2022/07/06 10:43:57;;;;;;;4.05;1.38;;;22.00;79.80;;;;;;4952017;28;20129;-72
2022/07/06 10:46:28;;;;;;;6.55;1.58;;;22.40;79.00;;;;;;4969362;28;20160;-72
2022/07/06 10:48:56;;;;;;;2.22;0.75;;;22.60;75.30;;;;;;4970595;28;20047;-72
2022/07/06 10:51:32;;;;;;;8.45;1.23;;;22.70;73.70;;;;;;4971813;28;20062;-73
2022/07/06 10:54:04;;;;;;;1.90;0.95;;;22.70;71.20;;;;;;4967570;28;20058;-72
2022/07/06 10:56:42;;;;;;;0.73;0.73;;;22.90;68.80;;;;;;4953247;28;20051;-73
2022/07/06 10:59:17;;;;;;;;;;;23.10;69.50;;;;;;4956879;28;20086;-72
2022/07/06 11:02:14;;;;;;;11.85;2.17;;;23.20;66.10;;;;;;4968329;28;19930;-72
2022/07/06 11:04:43;;;;;;;4.45;1.60;;;23.20;66.80;;;;;;4946392;28;20497;-72
2022/07/06 11:07:17;;;;;;;4.30;1.20;;;23.00;69.10;;;;;;4950850;28;20090;-72
2022/07/06 11:10:03;;;;;;;3.38;1.80;;;23.00;68.10;;;;;;4953769;28;20039;-73
2022/07/06 11:12:28;;;;;;;5.07;1.33;;;22.90;62.40;;;;;;4947223;28;20087;-71
2022/07/06 11:14:54;;;;;;;2.08;1.23;;;22.90;65.60;;;;;;4970153;28;20128;-72
2022/07/06 11:17:20;;;;;;;6.47;1.88;;;23.00;64.50;;;;;;4958336;28;20050;-72
2022/07/06 11:20:10;;;;;;;3.22;1.60;;;23.10;64.90;;;;;;4956930;28;20106;-72
2022/07/06 11:22:37;;;;;;;2.78;1.27;;;23.10;63.30;;;;;;4941981;28;20061;-72
2022/07/06 11:25:05;;;;;;;2.65;0.90;;;23.30;66.40;;;;;;4967602;28;20130;-72
2022/07/06 11:27:31;;;;;;;7.18;1.80;;;23.50;65.60;;;;;;4950734;28;20562;-71
2022/07/06 11:29:57;;;;;;;4.45;1.52;;;23.60;65.40;;;;;;4966868;28;20046;-72
2022/07/06 11:32:26;;;;;;;6.68;1.13;;;23.90;65.10;;;;;;4969116;28;20077;-72
2022/07/06 11:34:52;;;;;;;9.77;2.05;;;23.70;61.40;;;;;;4969101;28;20120;-71
2022/07/06 11:37:18;;;;;;;6.03;1.35;;;23.70;62.70;;;;;;4956066;28;20055;-78
2022/07/06 11:39:45;;;;;;;3.63;1.85;;;23.50;63.50;;;;;;4973930;28;20189;-72
2022/07/06 11:42:17;;;;;;;14.50;2.65;;;23.40;63.10;;;;;;4962622;28;20055;-73
2022/07/06 11:44:43;;;;;;;8.27;1.55;;;23.30;64.20;;;;;;4948128;28;20046;-71
2022/07/06 11:47:11;;;;;;;2.47;1.35;;;23.40;63.00;;;;;;4950566;28;20051;-72
2022/07/06 11:49:39;;;;;;;6.55;1.55;;;23.50;62.90;;;;;;4955507;28;20038;-72
2022/07/06 11:52:12;;;;;;;4.03;1.90;;;23.50;63.20;;;;;;4966886;28;20100;-73
2022/07/06 11:54:38;;;;;;;6.60;1.42;;;23.00;63.00;;;;;;4948811;28;20043;-72
2022/07/06 11:57:04;;;;;;;3.45;1.15;;;22.90;63.40;;;;;;4952872;28;20483;-73
2022/07/06 11:59:37;;;;;;;5.00;1.20;;;23.10;62.90;;;;;;4970735;28;20102;-72
2022/07/06 12:02:13;;;;;;;2.88;1.23;;;23.30;63.80;;;;;;4968579;28;20504;-72
2022/07/06 12:04:45;;;;;;;3.72;1.88;;;23.30;62.50;;;;;;4967319;28;20093;-73
2022/07/06 12:07:15;;;;;;;4.85;1.48;;;23.30;61.90;;;;;;4950735;28;20105;-72
2022/07/06 12:09:43;;;;;;;5.32;1.63;;;23.10;62.00;;;;;;4968339;28;20146;-72
2022/07/06 12:12:09;;;;;;;5.30;1.75;;;22.90;62.70;;;;;;4954408;28;20406;-74
2022/07/06 12:14:37;;;;;;;4.40;1.38;;;22.90;63.10;;;;;;4948345;28;20058;-72
2022/07/06 12:17:05;;;;;;;2.50;1.35;;;23.10;62.70;;;;;;4950590;28;20086;-70
2022/07/06 12:19:31;;;;;;;3.42;1.52;;;23.40;64.00;;;;;;4968124;28;20054;-71
2022/07/06 12:21:57;;;;;;;5.15;1.17;;;23.50;61.30;;;;;;4972070;28;20126;-72
2022/07/06 12:24:27;;;;;;;9.90;1.75;;;23.50;60.50;;;;;;4955487;28;20080;-71
2022/07/06 12:26:54;;;;;;;10.60;1.35;;;23.40;60.70;;;;;;4972976;28;20058;-71
2022/07/06 12:29:21;;;;;;;3.08;1.88;;;23.20;61.60;;;;;;4969136;28;20173;-71
2022/07/06 12:31:51;;;;;;;3.08;1.30;;;23.20;62.10;;;;;;4967425;28;20047;-72
2022/07/06 12:34:22;;;;;;;5.40;1.35;;;23.20;63.50;;;;;;4951880;28;20043;-72
2022/07/06 12:36:58;;;;;;;3.53;1.77;;;23.30;64.10;;;;;;4979776;28;20062;-71
2022/07/06 12:39:28;;;;;;;;;;;23.30;63.20;;;;;;4967620;28;20053;-72
2022/07/06 12:42:03;;;;;;;3.92;1.23;;;23.30;61.20;;;;;;4968657;28;19932;-72
2022/07/06 12:44:29;;;;;;;5.68;1.50;;;23.20;62.60;;;;;;4987247;28;20415;-71
2022/07/06 12:47:05;;;;;;;6.63;1.33;;;23.00;62.10;;;;;;4986835;28;20065;-71
2022/07/06 12:49:32;;;;;;;2.67;1.27;;;22.80;60.90;;;;;;4965420;28;20128;-71